createdAt,value
2017-11-09T00:01:43.577Z,48.47
2017-11-09T00:04:16.675Z,45.80
2017-11-09T00:06:44.576Z,46.30
2017-11-09T00:09:12.107Z,43.70
2017-11-09T00:11:39.656Z,45.43
2017-11-09T00:14:07.302Z,49.30
2017-11-09T00:16:34.851Z,49.70
2017-11-09T00:19:02.515Z,47.03
2017-11-09T00:21:30.040Z,49.30
2017-11-09T00:23:57.810Z,48.30
2017-11-09T00:26:25.328Z,49.70
2017-11-09T00:28:52.862Z,46.20
2017-11-09T00:31:21.190Z,47.17
2017-11-09T00:33:48.720Z,42.77
2017-11-09T00:36:17.040Z,47.60
2017-11-09T00:38:44.554Z,45.50
2017-11-09T00:41:13.237Z,45.40
2017-11-09T00:43:41.530Z,47.20
2017-11-09T00:46:09.823Z,45.83
2017-11-09T00:48:37.362Z,46.87
2017-11-09T00:51:04.907Z,45.00
2017-11-09T00:53:33.228Z,43.60
2017-11-09T00:56:00.734Z,44.27
2017-11-09T00:58:28.672Z,42.57
2017-11-09T01:00:56.212Z,44.37
2017-11-09T01:03:23.854Z,44.70
2017-11-09T01:05:51.411Z,45.90
2017-11-09T01:08:19.698Z,42.60
2017-11-09T01:10:47.273Z,42.87
2017-11-09T01:13:14.798Z,44.70
2017-11-09T01:15:43.391Z,42.40
2017-11-09T01:18:10.927Z,42.60
2017-11-09T01:20:38.469Z,44.00
2017-11-09T01:23:06.018Z,44.70
2017-11-09T01:25:33.548Z,45.93
2017-11-09T01:28:01.096Z,34.70
2017-11-09T01:30:28.644Z,43.37
2017-11-09T01:32:57.357Z,39.13
2017-11-09T01:35:24.874Z,42.70
2017-11-09T01:37:52.447Z,40.70
2017-11-09T01:40:20.790Z,43.37
2017-11-09T01:42:48.353Z,40.30
2017-11-09T01:45:15.902Z,39.70
2017-11-09T01:47:43.539Z,41.27
2017-11-09T01:50:11.374Z,37.70
2017-11-09T01:52:39.748Z,38.67
2017-11-09T01:55:07.279Z,40.57
2017-11-09T01:57:34.985Z,39.80
2017-11-09T02:00:02.492Z,39.40
2017-11-09T02:02:30.051Z,38.20
2017-11-09T02:04:57.571Z,39.80
2017-11-09T02:07:26.271Z,38.23
2017-11-09T02:09:53.808Z,41.30
2017-11-09T02:12:21.346Z,40.70
2017-11-09T02:14:48.899Z,39.47
2017-11-09T02:17:16.408Z,37.97
2017-11-09T02:19:43.958Z,43.53
2017-11-09T02:22:12.276Z,42.23
2017-11-09T02:24:40.231Z,41.27
2017-11-09T02:27:07.759Z,38.53
2017-11-09T02:29:35.307Z,39.50
2017-11-09T02:32:02.935Z,38.47
2017-11-09T02:34:30.485Z,38.83
2017-11-09T02:36:58.056Z,36.53
2017-11-09T02:39:25.579Z,40.30
2017-11-09T02:41:54.186Z,40.57
2017-11-09T02:44:21.711Z,43.40
2017-11-09T02:46:50.052Z,44.37
2017-11-09T02:49:17.595Z,42.23
2017-11-09T02:51:45.140Z,44.13
2017-11-09T02:54:12.704Z,41.93
2017-11-09T02:56:40.299Z,39.77
2017-11-09T02:59:08.148Z,39.33
2017-11-09T03:01:35.670Z,42.60
2017-11-09T03:04:03.953Z,42.30
2017-11-09T03:06:31.511Z,40.83
2017-11-09T03:08:59.024Z,41.03
2017-11-09T03:11:26.618Z,39.20
2017-11-09T03:13:54.160Z,43.13
2017-11-09T03:16:22.205Z,43.33
2017-11-09T03:18:49.720Z,43.43
2017-11-09T03:21:18.039Z,45.30
2017-11-09T03:23:45.578Z,42.70
2017-11-09T03:26:13.124Z,40.77
2017-11-09T03:28:40.678Z,44.20
2017-11-09T03:31:08.952Z,41.07
2017-11-09T03:33:37.678Z,43.10
2017-11-09T03:36:05.996Z,42.67
2017-11-09T03:38:33.533Z,39.60
2017-11-09T03:41:01.077Z,42.03
2017-11-09T03:43:28.622Z,45.90
2017-11-09T03:45:56.183Z,42.77
2017-11-09T03:48:23.707Z,39.07
2017-11-09T03:50:51.395Z,41.13
2017-11-09T03:53:18.936Z,43.50
2017-11-09T03:55:46.488Z,39.47
2017-11-09T03:58:14.066Z,41.30
2017-11-09T04:00:41.602Z,39.33
2017-11-09T04:03:09.134Z,41.20
2017-11-09T04:05:36.675Z,41.37
2017-11-09T04:08:04.547Z,45.10
2017-11-09T04:10:32.117Z,44.73
2017-11-09T04:12:59.648Z,42.77
2017-11-09T04:15:27.199Z,41.70
2017-11-09T04:17:55.565Z,42.83
2017-11-09T04:20:23.884Z,39.10
2017-11-09T04:22:51.408Z,43.33
2017-11-09T04:25:19.985Z,39.97
2017-11-09T04:27:47.530Z,43.70
2017-11-09T04:30:15.054Z,46.50
2017-11-09T04:32:42.604Z,39.97
2017-11-09T04:35:10.108Z,47.50
2017-11-09T04:37:37.731Z,41.93
2017-11-09T04:40:05.261Z,41.27
2017-11-09T04:42:33.195Z,31.07
2017-11-09T04:45:00.779Z,40.03
2017-11-09T04:47:29.994Z,44.03
2017-11-09T04:49:58.315Z,41.13
2017-11-09T04:52:25.900Z,41.17
2017-11-09T04:54:53.448Z,43.77
2017-11-09T04:57:20.960Z,42.77
2017-11-09T04:59:48.861Z,42.57
2017-11-09T05:02:16.413Z,45.30
2017-11-09T05:04:43.948Z,45.43
2017-11-09T05:07:11.522Z,43.03
2017-11-09T05:09:39.044Z,41.50
2017-11-09T05:12:06.624Z,44.97
2017-11-09T05:14:34.145Z,40.03
2017-11-09T05:17:02.082Z,39.67
2017-11-09T05:19:29.614Z,39.17
2017-11-09T05:21:57.135Z,42.63
2017-11-09T05:24:24.695Z,40.40
2017-11-09T05:26:52.320Z,41.00
2017-11-09T05:29:19.878Z,38.57
2017-11-09T05:31:47.395Z,41.07
2017-11-09T05:34:14.949Z,37.90
2017-11-09T05:36:42.479Z,40.20
2017-11-09T05:39:10.297Z,37.90
2017-11-09T05:41:38.596Z,41.30
2017-11-09T05:44:07.059Z,40.50
2017-11-09T05:46:34.621Z,39.47
2017-11-09T05:49:02.931Z,38.30
2017-11-09T05:51:30.720Z,39.70
2017-11-09T05:53:58.314Z,39.07
2017-11-09T05:56:26.600Z,42.90
2017-11-09T05:58:54.912Z,41.07
2017-11-09T06:01:22.434Z,37.63
2017-11-09T06:03:50.756Z,39.80
2017-11-09T06:06:18.280Z,39.70
2017-11-09T06:08:45.816Z,37.17
2017-11-09T06:11:13.378Z,39.40
2017-11-09T06:13:40.902Z,38.33
2017-11-09T06:16:08.455Z,41.60
2017-11-09T06:18:35.969Z,40.40
2017-11-09T06:21:04.248Z,40.30
2017-11-09T06:23:32.579Z,41.30
2017-11-09T06:26:00.240Z,42.00
2017-11-09T06:28:27.802Z,40.93
2017-11-09T06:30:55.302Z,29.67
2017-11-09T06:33:22.816Z,37.17
2017-11-09T06:35:50.346Z,32.57
2017-11-09T06:38:18.624Z,40.30
2017-11-09T06:40:46.196Z,42.40
2017-11-09T06:43:13.720Z,43.57
2017-11-09T06:45:42.257Z,41.87
2017-11-09T06:48:09.810Z,41.77
2017-11-09T06:50:37.329Z,38.07
2017-11-09T06:53:05.663Z,37.60
2017-11-09T06:55:33.177Z,37.33
2017-11-09T06:58:01.810Z,35.80
2017-11-09T07:00:29.329Z,36.90
2017-11-09T07:02:57.619Z,38.90
2017-11-09T07:05:25.183Z,40.13
2017-11-09T07:07:52.736Z,36.20
2017-11-09T07:10:20.274Z,40.97
2017-11-09T07:12:47.806Z,38.33
2017-11-09T07:15:15.684Z,40.37
2017-11-09T07:17:43.201Z,41.57
2017-11-09T07:20:10.751Z,38.27
2017-11-09T07:22:38.415Z,38.70
2017-11-09T07:25:05.978Z,39.80
2017-11-09T07:27:33.527Z,41.00
2017-11-09T07:30:01.092Z,38.47
2017-11-09T07:32:29.011Z,38.33
2017-11-09T07:34:56.582Z,39.93
2017-11-09T07:37:24.121Z,38.47
2017-11-09T07:39:51.663Z,38.10
2017-11-09T07:42:19.176Z,43.10
2017-11-09T07:44:46.903Z,38.27
2017-11-09T07:47:14.438Z,36.93
2017-11-09T07:49:42.258Z,39.77
2017-11-09T07:52:09.789Z,39.87
2017-11-09T07:54:37.298Z,41.43
2017-11-09T07:57:04.857Z,40.20
2017-11-09T07:59:32.400Z,41.53
2017-11-09T08:02:00.318Z,39.70
2017-11-09T08:04:28.594Z,42.87
2017-11-09T08:06:56.119Z,42.17
2017-11-09T08:09:24.450Z,42.23
2017-11-09T08:11:52.102Z,43.07
2017-11-09T08:14:19.905Z,42.30
2017-11-09T08:16:47.443Z,45.20
2017-11-09T08:19:14.972Z,47.37
2017-11-09T08:21:42.533Z,45.67
2017-11-09T08:24:10.758Z,45.57
2017-11-09T08:26:40.468Z,44.90
2017-11-09T08:29:08.194Z,44.23
2017-11-09T08:31:36.045Z,42.87
2017-11-09T08:34:03.619Z,45.40
2017-11-09T08:36:31.231Z,43.17
2017-11-09T08:38:58.788Z,44.47
2017-11-09T08:41:26.711Z,43.57
2017-11-09T08:43:54.589Z,45.50
2017-11-09T08:46:22.121Z,43.87
2017-11-09T08:48:50.032Z,46.07
2017-11-09T08:51:17.562Z,41.87
2017-11-09T08:53:45.109Z,43.37
2017-11-09T08:56:12.900Z,44.57
2017-11-09T08:58:40.755Z,44.13
2017-11-09T09:01:08.331Z,43.47
2017-11-09T09:03:36.619Z,45.10
2017-11-09T09:06:05.054Z,43.83
2017-11-09T09:08:32.593Z,43.20
2017-11-09T09:11:00.154Z,42.33
2017-11-09T09:13:27.680Z,43.87
2017-11-09T09:15:55.512Z,40.80
2017-11-09T09:18:23.081Z,40.47
2017-11-09T09:20:54.572Z,43.67
2017-11-09T09:23:22.168Z,43.10
2017-11-09T09:25:56.088Z,46.40
2017-11-09T09:31:24.872Z,43.70
2017-11-09T09:33:56.093Z,44.77
2017-11-09T09:36:26.608Z,44.30
2017-11-09T09:38:55.351Z,48.53
2017-11-09T09:41:22.883Z,41.27
2017-11-09T09:43:50.443Z,43.00
2017-11-09T09:46:18.019Z,42.97
2017-11-09T09:48:45.584Z,42.53
2017-11-09T09:51:13.115Z,43.60
2017-11-09T09:53:40.993Z,42.53
2017-11-09T09:56:08.525Z,42.20
2017-11-09T09:58:36.071Z,45.40
2017-11-09T10:01:03.635Z,45.80
2017-11-09T10:03:31.169Z,41.87
2017-11-09T10:05:59.497Z,47.17
2017-11-09T10:08:27.044Z,42.70
2017-11-09T10:10:54.893Z,43.57
2017-11-09T10:13:22.475Z,45.83
2017-11-09T10:15:50.099Z,41.70
2017-11-09T10:18:17.665Z,44.03
2017-11-09T10:20:45.184Z,44.00
2017-11-09T10:23:12.731Z,41.97
2017-11-09T10:25:40.256Z,43.70
2017-11-09T10:28:11.028Z,43.30
2017-11-09T10:30:38.608Z,46.10
2017-11-09T10:33:06.148Z,45.57
2017-11-09T10:35:33.690Z,45.47
2017-11-09T10:38:01.204Z,51.87
2017-11-09T10:40:28.743Z,41.57
2017-11-09T10:42:57.063Z,45.70
2017-11-09T10:45:24.652Z,46.00
2017-11-09T10:47:52.976Z,44.03
2017-11-09T10:50:21.567Z,42.47
2017-11-09T10:52:49.883Z,44.53
2017-11-09T10:55:17.418Z,44.47
2017-11-09T10:57:45.768Z,44.23
2017-11-09T11:00:13.323Z,45.00
2017-11-09T11:02:40.886Z,44.00
2017-11-09T11:05:08.430Z,46.87
2017-11-09T11:07:35.990Z,44.07
2017-11-09T11:10:03.515Z,46.60
2017-11-09T11:12:31.388Z,45.60
2017-11-09T11:14:58.926Z,48.63
2017-11-09T11:17:26.478Z,45.57
2017-11-09T11:19:54.827Z,44.57
2017-11-09T11:22:22.360Z,45.50
2017-11-09T11:24:50.232Z,47.60
2017-11-09T11:27:17.791Z,44.17
2017-11-09T11:29:45.329Z,45.43
2017-11-09T11:32:12.896Z,49.77
2017-11-09T11:34:40.423Z,48.57
2017-11-09T11:37:08.756Z,48.97
2017-11-09T11:39:36.329Z,47.30
2017-11-09T11:42:04.190Z,44.97
2017-11-09T11:44:31.764Z,49.73
2017-11-09T11:46:59.314Z,50.83
2017-11-09T11:49:26.935Z,45.30
2017-11-09T11:51:54.472Z,50.47
2017-11-09T11:54:22.068Z,46.33
2017-11-09T11:56:49.583Z,48.97
2017-11-09T11:59:17.396Z,44.87
2017-11-09T12:01:44.909Z,46.57
2017-11-09T12:04:12.436Z,46.40
2017-11-09T12:06:39.987Z,45.03
2017-11-09T12:09:07.543Z,48.37
2017-11-09T12:11:35.420Z,48.93
2017-11-09T12:14:03.755Z,45.87
2017-11-09T12:16:32.099Z,46.20
2017-11-09T12:18:59.670Z,46.50
2017-11-09T12:21:27.273Z,45.03
2017-11-09T12:23:55.167Z,42.20
2017-11-09T12:26:23.522Z,44.10
2017-11-09T12:28:51.048Z,41.97
2017-11-09T12:31:18.603Z,43.47
2017-11-09T12:33:46.213Z,46.53
2017-11-09T12:36:13.781Z,44.80
2017-11-09T12:38:41.328Z,44.03
2017-11-09T12:41:09.138Z,41.97
2017-11-09T12:43:36.759Z,44.10
2017-11-09T12:46:04.286Z,40.70
2017-11-09T12:48:32.773Z,43.60
2017-11-09T12:51:01.120Z,43.17
2017-11-09T12:53:28.675Z,42.67
2017-11-09T12:55:56.237Z,40.60
2017-11-09T12:58:24.100Z,46.70
2017-11-09T13:00:51.775Z,43.30
2017-11-09T13:03:19.294Z,42.43
2017-11-09T13:05:46.868Z,45.00
2017-11-09T13:08:14.408Z,40.10
2017-11-09T13:10:41.978Z,43.80
2017-11-09T13:13:09.534Z,39.40
2017-11-09T13:15:37.423Z,44.00
2017-11-09T13:18:04.937Z,43.40
2017-11-09T13:20:33.231Z,46.03
2017-11-09T13:23:01.556Z,43.17
2017-11-09T13:25:29.084Z,46.67
2017-11-09T13:27:56.634Z,46.20
2017-11-09T13:30:24.934Z,43.87
2017-11-09T13:32:52.495Z,42.90
2017-11-09T13:35:20.008Z,42.03
2017-11-09T13:37:48.332Z,42.60
2017-11-09T13:40:15.863Z,46.07
2017-11-09T13:42:44.584Z,43.17
2017-11-09T13:45:12.121Z,44.80
2017-11-09T13:47:39.670Z,42.47
2017-11-09T13:50:08.015Z,40.30
2017-11-09T13:52:35.545Z,43.80
2017-11-09T13:55:03.177Z,44.80
2017-11-09T13:57:31.466Z,43.20
2017-11-09T13:59:59.293Z,43.27
2017-11-09T14:02:26.869Z,42.97
2017-11-09T14:04:55.173Z,43.40
2017-11-09T14:07:39.968Z,45.33
2017-11-09T14:10:07.496Z,40.97
2017-11-09T14:12:35.843Z,45.10
2017-11-09T14:15:03.394Z,42.30
2017-11-09T14:17:31.229Z,43.10
2017-11-09T14:19:58.752Z,40.77
2017-11-09T14:22:26.441Z,44.00
2017-11-09T14:24:54.032Z,42.47
2017-11-09T14:27:21.664Z,40.87
2017-11-09T14:29:49.503Z,43.30
2017-11-09T14:32:17.228Z,42.43
2017-11-09T14:34:45.104Z,43.40
2017-11-09T14:37:12.666Z,41.93
2017-11-09T14:39:42.934Z,42.40
2017-11-09T14:42:10.510Z,43.83
2017-11-09T14:44:38.151Z,42.97
2017-11-09T14:47:08.779Z,45.03
2017-11-09T14:49:36.425Z,43.30
2017-11-09T14:52:04.104Z,39.20
2017-11-09T14:54:32.799Z,38.90
2017-11-09T14:57:00.758Z,43.40
2017-11-09T14:59:28.298Z,42.30
2017-11-09T15:01:55.861Z,41.17
2017-11-09T15:04:24.347Z,44.83
2017-11-09T15:06:51.974Z,40.97
2017-11-09T15:09:19.607Z,43.80
2017-11-09T15:11:47.166Z,39.50
2017-11-09T15:14:14.731Z,41.67
2017-11-09T15:16:44.723Z,42.43
2017-11-09T15:19:24.556Z,43.90
2017-11-09T15:21:56.706Z,43.57
2017-11-09T15:24:29.414Z,46.07
2017-11-09T15:26:57.120Z,41.00
2017-11-09T15:29:24.719Z,41.90
2017-11-09T15:31:52.458Z,43.80
2017-11-09T15:39:53.507Z,43.97
2017-11-09T15:42:23.750Z,43.80
2017-11-09T15:45:16.177Z,40.03
2017-11-09T15:47:44.108Z,41.60
2017-11-09T15:50:12.460Z,38.53
2017-11-09T15:55:42.504Z,43.07
2017-11-09T16:01:11.175Z,41.77
2017-11-09T16:06:24.773Z,42.63
2017-11-09T16:08:52.624Z,44.53
2017-11-09T16:11:24.442Z,46.73
2017-11-09T16:30:25.330Z,40.57
2017-11-09T16:33:07.815Z,40.33
2017-11-09T16:44:25.557Z,38.93
2017-11-09T16:47:00.181Z,42.40
2017-11-09T16:49:30.020Z,42.80
2017-11-09T16:51:58.375Z,39.93
2017-11-09T17:14:22.281Z,37.90
2017-11-09T17:16:57.308Z,38.03
2017-11-09T17:19:25.253Z,37.23
2017-11-09T17:21:52.819Z,36.00
2017-11-09T17:24:20.422Z,37.67
2017-11-09T17:26:51.108Z,38.20
2017-11-09T17:29:18.719Z,36.27
2017-11-09T17:31:46.560Z,38.53
2017-11-09T17:34:14.914Z,40.37
2017-11-09T17:36:43.220Z,39.90
2017-11-09T17:39:10.797Z,36.53
2017-11-09T17:41:38.400Z,38.37
2017-11-09T17:44:06.740Z,39.70
2017-11-09T17:46:34.315Z,40.30
2017-11-09T17:49:01.829Z,38.97
2017-11-09T17:51:31.302Z,40.20
2017-11-09T17:53:59.596Z,39.37
2017-11-09T17:56:27.916Z,38.30
2017-11-09T17:58:55.432Z,35.83
2017-11-09T18:01:23.789Z,34.80
2017-11-09T18:03:51.352Z,40.03
2017-11-09T18:06:19.656Z,37.37
2017-11-09T18:08:47.488Z,36.93
2017-11-09T18:11:15.075Z,37.53
2017-11-09T18:13:43.372Z,40.50
2017-11-09T18:16:11.716Z,36.97
2017-11-09T18:18:39.233Z,36.77
2017-11-09T18:21:06.801Z,35.67
2017-11-09T18:23:34.339Z,37.77
2017-11-09T18:26:01.860Z,36.23
2017-11-09T18:28:30.212Z,34.73
2017-11-09T18:30:57.820Z,34.37
2017-11-09T18:33:25.712Z,35.07
2017-11-09T18:35:53.248Z,48.93
2017-11-09T18:38:21.531Z,36.57
2017-11-09T18:40:49.100Z,36.03
2017-11-09T18:43:28.071Z,39.60
2017-11-09T18:46:00.707Z,36.90
2017-11-09T18:48:33.000Z,37.70
2017-11-09T19:19:24.238Z,32.23
2017-11-09T19:24:51.905Z,34.07
2017-11-09T19:27:19.885Z,36.03
2017-11-09T19:29:47.399Z,33.67
2017-11-09T19:32:14.968Z,36.80
2017-11-09T19:34:43.396Z,32.43
2017-11-09T19:37:11.175Z,35.17
2017-11-09T19:39:38.972Z,34.97
2017-11-09T19:42:06.685Z,36.97
2017-11-09T19:44:34.550Z,32.67
2017-11-09T19:47:02.149Z,41.58
2017-11-09T19:49:30.478Z,40.10
2017-11-09T19:51:58.042Z,35.43
2017-11-09T19:54:25.599Z,35.00
2017-11-09T19:56:53.225Z,38.07
2017-11-09T19:59:20.791Z,35.67
2017-11-09T20:01:48.701Z,37.00
2017-11-09T20:04:16.251Z,36.80
2017-11-09T20:06:44.055Z,34.30
2017-11-09T20:09:12.403Z,35.13
2017-11-09T20:11:39.951Z,31.97
2017-11-09T20:14:07.523Z,33.87
2017-11-09T20:16:35.065Z,36.00
2017-11-09T20:19:03.027Z,33.70
2017-11-09T20:21:30.683Z,31.33
2017-11-09T20:23:58.274Z,34.13
2017-11-09T20:26:25.858Z,33.57
2017-11-09T20:28:53.444Z,32.90
2017-11-09T20:31:21.813Z,35.17
2017-11-09T20:33:50.132Z,33.60
2017-11-09T20:36:17.982Z,34.30
2017-11-09T20:38:45.644Z,32.60
2017-11-09T20:41:13.493Z,33.97
2017-11-09T20:43:41.474Z,31.83
2017-11-09T20:46:09.068Z,34.23
2017-11-09T20:48:37.935Z,31.97
2017-11-09T20:51:05.685Z,32.70
2017-11-09T20:53:36.981Z,33.13
2017-11-09T20:56:04.556Z,34.80
2017-11-09T20:58:35.777Z,32.03
2017-11-09T21:01:03.420Z,33.07
2017-11-09T21:03:32.865Z,31.60
2017-11-09T21:06:00.691Z,32.07
2017-11-09T21:08:29.054Z,32.77
2017-11-09T21:10:57.782Z,36.37
2017-11-09T21:13:25.598Z,32.87
2017-11-09T21:15:53.134Z,31.67
2017-11-09T21:18:20.698Z,34.03
2017-11-09T21:20:48.246Z,33.00
2017-11-09T21:23:16.113Z,34.93
2017-11-09T21:25:45.635Z,34.40
2017-11-09T21:28:13.218Z,33.37
2017-11-09T21:30:40.883Z,32.57
2017-11-09T21:33:08.501Z,30.67
2017-11-09T21:35:36.345Z,32.03
2017-11-09T21:38:03.912Z,32.37
2017-11-09T21:40:31.719Z,32.90
2017-11-09T21:42:59.585Z,31.27
2017-11-09T21:45:27.166Z,30.90
2017-11-09T21:47:54.690Z,35.30
2017-11-09T21:50:22.271Z,31.17
2017-11-09T21:52:49.830Z,33.90
2017-11-09T21:55:18.499Z,32.37
2017-11-09T21:57:46.071Z,30.97
2017-11-09T22:00:13.612Z,30.30
2017-11-09T22:02:41.193Z,33.27
2017-11-09T22:05:08.704Z,29.67
2017-11-09T22:07:36.296Z,29.33
2017-11-09T22:10:03.861Z,29.80
2017-11-09T22:12:32.246Z,31.13
2017-11-09T22:14:59.761Z,32.40
2017-11-09T22:17:27.572Z,30.53
2017-11-09T22:19:55.126Z,31.73
2017-11-09T22:22:22.668Z,32.50
2017-11-09T22:24:50.336Z,31.20
2017-11-09T22:27:17.876Z,32.40
2017-11-09T22:29:45.965Z,32.40
2017-11-09T22:32:13.591Z,30.63
2017-11-09T22:34:41.127Z,29.80
2017-11-09T22:37:08.937Z,31.97
2017-11-09T22:39:36.526Z,29.50
2017-11-09T22:42:04.157Z,30.00
2017-11-09T22:44:31.681Z,30.50
2017-11-09T22:46:59.616Z,31.20
2017-11-09T22:49:27.290Z,31.70
2017-11-09T22:51:55.657Z,32.60
2017-11-09T22:54:23.215Z,30.73
2017-11-09T22:56:50.774Z,31.17
2017-11-09T22:59:18.480Z,32.17
2017-11-09T23:01:46.061Z,29.27
2017-11-09T23:04:14.082Z,27.00
2017-11-09T23:06:41.631Z,29.77
2017-11-09T23:09:09.188Z,30.00
2017-11-09T23:11:36.761Z,31.27
2017-11-09T23:14:04.284Z,29.83
2017-11-09T23:16:31.832Z,29.03
2017-11-09T23:18:59.424Z,26.87
2017-11-09T23:21:27.639Z,25.30
2017-11-09T23:23:55.238Z,28.03
2017-11-09T23:26:22.764Z,27.63
2017-11-09T23:28:50.299Z,26.50
2017-11-09T23:31:18.366Z,25.03
2017-11-09T23:33:45.928Z,27.37
2017-11-09T23:36:13.465Z,25.73
2017-11-09T23:38:41.359Z,26.70
2017-11-09T23:41:08.873Z,25.23
2017-11-09T23:43:37.192Z,23.60
2017-11-09T23:46:05.309Z,24.87
2017-11-09T23:48:32.892Z,24.07
2017-11-09T23:51:01.207Z,26.13
2017-11-09T23:53:29.996Z,22.73
2017-11-09T23:55:58.057Z,25.33
2017-11-09T23:58:25.585Z,22.30
